createdAt,value
2022-10-04T00:02:02.047Z,99180.05
2022-10-04T00:04:48.706Z,99171.03
2022-10-04T00:07:25.249Z,99178.58
2022-10-04T00:10:14.694Z,99175.53
2022-10-04T00:12:58.985Z,99177.31
2022-10-04T00:15:39.503Z,99170.39
2022-10-04T00:18:21.867Z,99175.64
2022-10-04T00:20:56.671Z,99165.47
2022-10-04T00:23:40.519Z,99174.48
2022-10-04T00:26:27.260Z,99163.69
2022-10-04T00:28:57.642Z,99168.41
2022-10-04T00:31:28.854Z,99175.43
2022-10-04T00:34:16.235Z,99174.38
2022-10-04T00:36:58.036Z,99172.39
2022-10-04T00:39:35.291Z,99182.98
2022-10-04T00:42:31.568Z,99182.66
2022-10-04T00:45:29.297Z,99177.84
2022-10-04T00:48:18.800Z,99188.43
2022-10-04T00:50:56.789Z,99197.03
2022-10-04T00:53:49.646Z,99192.31
2022-10-04T00:56:48.823Z,99191.16
2022-10-04T00:59:44.718Z,99188.64
2022-10-04T01:02:40.753Z,99195.56
2022-10-04T01:05:21.040Z,99191.78
2022-10-04T01:08:05.198Z,99191.16
2022-10-04T01:10:47.788Z,99200.28
2022-10-04T01:13:22.463Z,99196.50
2022-10-04T01:16:00.838Z,99194.94
2022-10-04T01:18:34.844Z,99192.00
2022-10-04T01:21:21.286Z,99185.00
2022-10-04T01:24:02.846Z,99186.78
2022-10-04T01:26:39.960Z,99192.00
2022-10-04T01:29:19.289Z,99187.91
2022-10-04T01:31:50.733Z,99186.55
2022-10-04T01:34:23.466Z,99185.63
2022-10-04T01:36:55.120Z,99183.75
2022-10-04T01:39:25.545Z,99187.52
2022-10-04T01:42:18.399Z,99196.55
2022-10-04T01:45:12.347Z,99196.02
2022-10-04T01:48:00.711Z,99204.30
2022-10-04T01:50:41.502Z,99204.41
2022-10-04T01:53:24.193Z,99217.73
2022-10-04T01:56:06.890Z,99216.36
2022-10-04T01:58:50.090Z,99211.02
2022-10-04T02:01:29.524Z,99214.05
2022-10-04T02:04:03.376Z,99209.76
2022-10-04T02:06:39.459Z,99216.78
2022-10-04T02:09:21.793Z,99214.89
2022-10-04T02:11:52.574Z,99221.19
2022-10-04T02:14:25.048Z,99213.11
2022-10-04T02:16:54.163Z,99226.02
2022-10-04T02:19:34.719Z,99228.01
2022-10-04T02:22:06.728Z,99228.32
2022-10-04T02:24:39.237Z,99230.52
2022-10-04T02:27:09.915Z,99224.02
2022-10-04T02:29:41.030Z,99234.41
2022-10-04T02:32:30.063Z,99235.45
2022-10-04T02:35:00.289Z,99233.25
2022-10-04T02:37:30.835Z,99232.63
2022-10-04T02:40:12.922Z,99241.96
2022-10-04T02:42:50.835Z,99246.16
2022-10-04T02:45:30.959Z,99246.47
2022-10-04T02:48:04.609Z,99244.38
2022-10-04T02:50:39.440Z,99258.12
2022-10-04T02:53:37.512Z,99268.30
2022-10-04T02:56:09.161Z,99268.82
2022-10-04T02:58:39.680Z,99271.86
2022-10-04T03:01:17.156Z,99273.65
2022-10-04T03:03:47.351Z,99281.52
2022-10-04T03:06:19.736Z,99285.19
2022-10-04T03:08:58.573Z,99280.98
2022-10-04T03:11:36.710Z,99285.81
2022-10-04T03:14:20.619Z,99289.27
2022-10-04T03:16:54.301Z,99287.91
2022-10-04T03:19:26.625Z,99288.75
2022-10-04T03:22:00.841Z,99288.11
2022-10-04T03:24:38.018Z,99289.38
2022-10-04T03:27:08.463Z,99299.13
2022-10-04T03:29:40.115Z,99297.44
2022-10-04T03:32:13.498Z,99300.69
2022-10-04T03:34:45.239Z,99302.69
2022-10-04T03:37:17.226Z,99300.69
2022-10-04T03:39:48.852Z,99307.83
2022-10-04T03:42:34.442Z,99314.96
2022-10-04T03:45:15.426Z,99314.96
2022-10-04T03:47:48.355Z,99322.51
2022-10-04T03:50:24.720Z,99321.98
2022-10-04T03:52:59.476Z,99327.44
2022-10-04T03:55:42.290Z,99325.03
2022-10-04T03:58:15.447Z,99327.76
2022-10-04T04:01:02.254Z,99320.94
2022-10-04T04:03:34.915Z,99334.26
2022-10-04T04:06:06.072Z,99329.22
2022-10-04T04:08:37.601Z,99327.43
2022-10-04T04:11:11.481Z,99328.79
2022-10-04T04:14:16.852Z,99332.56
2022-10-04T04:16:46.362Z,99341.91
2022-10-04T04:19:18.023Z,99344.06
2022-10-04T04:21:48.369Z,99348.35
2022-10-04T04:24:28.537Z,99346.88
2022-10-04T04:27:01.281Z,99347.72
2022-10-04T04:29:47.722Z,99357.58
2022-10-04T04:32:29.913Z,99352.97
2022-10-04T04:35:10.513Z,99355.80
2022-10-04T04:37:39.904Z,99360.73
2022-10-04T04:40:24.875Z,99367.03
2022-10-04T04:42:54.391Z,99367.70
2022-10-04T04:45:25.815Z,99372.42
2022-10-04T04:47:57.340Z,99375.27
2022-10-04T04:50:30.869Z,99368.13
2022-10-04T04:53:24.350Z,99376.52
2022-10-04T04:56:04.265Z,99388.05
2022-10-04T04:58:37.549Z,99392.67
2022-10-04T05:01:29.422Z,99398.85
2022-10-04T05:04:07.228Z,99402.30
2022-10-04T05:06:41.759Z,99407.23
2022-10-04T05:09:34.686Z,99409.23
2022-10-04T05:12:15.086Z,99414.28
2022-10-04T05:14:51.906Z,99414.08
2022-10-04T05:17:28.357Z,99419.84
2022-10-04T05:19:59.663Z,99427.73
2022-10-04T05:22:30.155Z,99426.80
2022-10-04T05:25:04.039Z,99430.48
2022-10-04T05:27:45.377Z,99436.58
2022-10-04T05:30:32.430Z,99435.21
2022-10-04T05:33:25.193Z,99439.94
2022-10-04T05:36:12.292Z,99440.05
2022-10-04T05:38:57.685Z,99450.03
2022-10-04T05:41:41.961Z,99446.78
2022-10-04T05:44:28.427Z,99458.33
2022-10-04T05:47:02.331Z,99454.66
2022-10-04T05:49:39.517Z,99459.51
2022-10-04T05:52:13.906Z,99457.00
2022-10-04T05:54:44.726Z,99459.84
2022-10-04T05:57:43.277Z,99457.89
2022-10-04T06:00:22.247Z,99454.86
2022-10-04T06:03:13.973Z,99463.79
2022-10-04T06:06:07.093Z,99468.56
2022-10-04T06:09:21.526Z,99468.69
2022-10-04T06:12:06.643Z,99467.01
2022-10-04T06:14:42.573Z,99479.73
2022-10-04T06:17:35.105Z,99479.52
2022-10-04T06:20:13.115Z,99482.99
2022-10-04T06:22:47.310Z,99488.77
2022-10-04T06:25:30.950Z,99487.09
2022-10-04T06:28:12.311Z,99492.66
2022-10-04T06:30:59.283Z,99491.19
2022-10-04T06:33:46.827Z,99489.72
2022-10-04T06:36:50.315Z,99506.05
2022-10-04T06:39:55.350Z,99511.93
2022-10-04T06:42:52.788Z,99515.50
2022-10-04T06:45:53.421Z,99523.28
2022-10-04T06:49:10.887Z,99539.47
2022-10-04T06:52:17.266Z,99525.70
2022-10-04T06:55:01.363Z,99531.69
2022-10-04T06:58:00.042Z,99530.84
2022-10-04T07:00:30.236Z,99536.94
2022-10-04T07:03:04.712Z,99541.98
2022-10-04T07:05:49.482Z,99541.66
2022-10-04T07:08:33.976Z,99550.39
2022-10-04T07:11:16.193Z,99549.97
2022-10-04T07:14:02.769Z,99551.01
2022-10-04T07:16:54.213Z,99560.26
2022-10-04T07:19:49.060Z,99556.14
2022-10-04T07:22:25.795Z,99560.38
2022-10-04T07:25:11.498Z,99553.55
2022-10-04T07:28:29.487Z,99563.83
2022-10-04T07:31:13.510Z,99558.04
2022-10-04T07:33:50.241Z,99563.22
2022-10-04T07:36:25.105Z,99559.74
2022-10-04T07:39:00.161Z,99585.62
2022-10-04T07:41:35.647Z,99593.83
2022-10-04T07:44:21.739Z,99595.20
2022-10-04T07:47:22.972Z,99603.09
2022-10-04T07:49:53.915Z,99600.56
2022-10-04T07:52:48.118Z,99597.41
2022-10-04T07:55:28.867Z,99605.61
2022-10-04T07:58:25.685Z,99613.19
2022-10-04T08:01:20.796Z,99614.86
2022-10-04T08:04:07.660Z,99607.59
2022-10-04T08:07:01.815Z,99621.48
2022-10-04T08:10:06.941Z,99619.91
2022-10-04T08:12:53.965Z,99618.22
2022-10-04T08:15:39.806Z,99620.95
2022-10-04T08:18:52.383Z,99628.31
2022-10-04T08:21:26.583Z,99632.62
2022-10-04T08:24:11.391Z,99628.19
2022-10-04T08:27:14.486Z,99640.50
2022-10-04T08:29:54.491Z,99637.34
2022-10-04T08:32:55.833Z,99650.10
2022-10-04T08:35:39.826Z,99643.14
2022-10-04T08:38:28.866Z,99646.20
2022-10-04T08:41:36.862Z,99659.36
2022-10-04T08:44:46.604Z,99663.89
2022-10-04T08:48:05.980Z,99662.21
2022-10-04T08:50:50.171Z,99674.11
2022-10-04T08:53:46.492Z,99677.25
2022-10-04T08:56:38.524Z,99678.73
2022-10-04T08:59:46.301Z,99686.52
2022-10-04T09:02:37.135Z,99689.69
2022-10-04T09:05:34.285Z,99694.73
2022-10-04T09:08:42.214Z,99706.11
2022-10-04T09:11:43.744Z,99697.58
2022-10-04T09:14:32.950Z,99700.74
2022-10-04T09:17:23.904Z,99713.69
2022-10-04T09:20:36.664Z,99712.00
2022-10-04T09:22:52.651Z,99720.32
2022-10-04T09:25:38.998Z,99724.84
2022-10-04T09:28:23.890Z,99732.95
2022-10-04T09:30:58.670Z,99732.42
2022-10-04T09:33:51.675Z,99744.00
2022-10-04T09:36:52.140Z,99745.05
2022-10-04T09:40:00.682Z,99747.50
2022-10-04T09:42:41.555Z,99751.39
2022-10-04T09:45:34.121Z,99749.39
2022-10-04T09:48:29.450Z,99749.28
2022-10-04T09:51:09.821Z,99765.21
2022-10-04T09:54:28.808Z,99757.08
2022-10-04T09:57:17.075Z,99757.91
2022-10-04T10:00:17.595Z,99753.79
2022-10-04T10:03:10.940Z,99755.14
2022-10-04T10:05:58.946Z,99770.20
2022-10-04T10:09:10.274Z,99766.72
2022-10-04T10:12:21.710Z,99766.92
2022-10-04T10:15:23.789Z,99769.47
2022-10-04T10:18:07.229Z,99774.66
2022-10-04T10:20:53.939Z,99775.30
2022-10-04T10:23:46.461Z,99776.66
2022-10-04T10:26:38.378Z,99784.88
2022-10-04T10:29:36.629Z,99790.38
2022-10-04T10:32:22.684Z,99799.34
2022-10-04T10:35:20.282Z,99800.19
2022-10-04T10:38:22.606Z,99801.84
2022-10-04T10:41:05.819Z,99803.63
2022-10-04T10:44:08.425Z,99801.73
2022-10-04T10:47:01.084Z,99798.16
2022-10-04T10:49:59.836Z,99813.00
2022-10-04T10:52:48.157Z,99813.63
2022-10-04T10:55:47.640Z,99813.53
2022-10-04T10:58:40.190Z,99815.95
2022-10-04T11:01:32.834Z,99815.63
2022-10-04T11:04:24.903Z,99808.89
2022-10-04T11:07:39.855Z,99813.00
2022-10-04T11:10:43.325Z,99815.95
2022-10-04T11:13:31.515Z,99812.93
2022-10-04T11:16:48.008Z,99806.08
2022-10-04T11:19:46.418Z,99815.77
2022-10-04T11:22:44.352Z,99814.81
2022-10-04T11:25:33.654Z,99816.92
2022-10-04T11:28:12.547Z,99824.09
2022-10-04T11:31:30.384Z,99826.93
2022-10-04T11:34:24.334Z,99823.45
2022-10-04T11:37:10.076Z,99824.41
2022-10-04T11:39:53.612Z,99830.94
2022-10-04T11:42:49.183Z,99826.83
2022-10-04T11:45:49.571Z,99832.31
2022-10-04T11:48:44.305Z,99837.47
2022-10-04T11:51:48.413Z,99838.73
2022-10-04T11:54:38.964Z,99839.69
2022-10-04T11:57:28.446Z,99835.47
2022-10-04T12:00:20.711Z,99840.31
2022-10-04T12:03:21.873Z,99844.73
2022-10-04T12:06:34.270Z,99841.25
2022-10-04T12:09:28.169Z,99846.63
2022-10-04T12:12:36.800Z,99841.35
2022-10-04T12:15:24.108Z,99842.93
2022-10-04T12:18:33.127Z,99840.08
2022-10-04T12:21:22.793Z,99852.94
2022-10-04T12:24:16.704Z,99852.19
2022-10-04T12:27:25.624Z,99847.87
2022-10-04T12:30:26.219Z,99847.44
2022-10-04T12:33:21.909Z,99841.33
2022-10-04T12:36:25.959Z,99848.06
2022-10-04T12:39:04.808Z,99845.84
2022-10-04T12:42:07.416Z,99855.66
2022-10-04T12:45:08.709Z,99853.86
2022-10-04T12:48:03.450Z,99857.34
2022-10-04T12:50:54.389Z,99861.67
2022-10-04T12:53:34.617Z,99867.02
2022-10-04T12:56:38.612Z,99872.63
2022-10-04T12:59:45.439Z,99866.51
2022-10-04T13:02:45.573Z,99879.27
2022-10-04T13:05:51.921Z,99874.95
2022-10-04T13:09:04.447Z,99891.82
2022-10-04T13:12:05.891Z,99888.77
2022-10-04T13:14:46.907Z,99891.41
2022-10-04T13:17:36.356Z,99898.68
2022-10-04T13:20:34.517Z,99905.74
2022-10-04T13:23:20.767Z,99905.11
2022-10-04T13:26:27.985Z,99908.38
2022-10-04T13:29:34.080Z,99914.39
2022-10-04T13:32:07.679Z,99913.75
2022-10-04T13:34:53.885Z,99917.66
2022-10-04T13:37:48.901Z,99923.87
2022-10-04T13:40:38.039Z,99922.70
2022-10-04T13:43:47.028Z,99930.19
2022-10-04T13:46:56.436Z,99933.14
2022-10-04T13:50:03.892Z,99936.30
2022-10-04T13:53:28.532Z,99945.98
2022-10-04T13:56:30.675Z,99946.92
2022-10-04T13:59:35.455Z,99953.45
2022-10-04T14:02:22.145Z,99958.30
2022-10-04T14:05:25.558Z,99954.14
2022-10-04T14:08:27.811Z,99963.30
2022-10-04T14:11:29.966Z,99966.77
2022-10-04T14:14:27.302Z,99971.39
2022-10-04T14:17:27.155Z,99969.59
2022-10-04T14:20:13.180Z,99980.42
2022-10-04T14:23:07.225Z,99992.16
2022-10-04T14:25:58.955Z,99993.63
2022-10-04T14:28:54.459Z,99993.19
2022-10-04T14:31:48.381Z,100004.55
2022-10-04T14:34:50.378Z,100002.53
2022-10-04T14:37:57.856Z,100011.88
2022-10-04T14:41:01.027Z,100015.55
2022-10-04T14:44:13.061Z,100010.16
2022-10-04T14:47:02.313Z,100004.36
2022-10-04T14:50:09.886Z,100012.98
2022-10-04T14:52:53.826Z,100016.13
2022-10-04T14:56:06.052Z,100015.48
2022-10-04T14:59:16.777Z,100019.91
2022-10-04T15:02:21.934Z,100024.01
2022-10-04T15:05:31.782Z,100026.95
2022-10-04T15:08:25.489Z,100036.52
2022-10-04T15:11:09.046Z,100039.78
2022-10-04T15:14:00.963Z,100035.41
2022-10-04T15:16:57.994Z,100036.45
2022-10-04T15:19:31.792Z,100039.71
2022-10-04T15:22:33.418Z,100044.66
2022-10-04T15:25:04.377Z,100055.41
2022-10-04T15:27:49.092Z,100061.39
2022-10-04T15:30:27.147Z,100051.17
2022-10-04T15:33:18.127Z,100064.86
2022-10-04T15:36:10.631Z,100070.33
2022-10-04T15:38:55.811Z,100065.18
2022-10-04T15:41:38.899Z,100073.91
2022-10-04T15:44:22.085Z,100077.48
2022-10-04T15:47:12.150Z,100084.45
2022-10-04T15:50:30.544Z,100080.87
2022-10-04T15:53:39.917Z,100086.54
2022-10-04T15:56:37.799Z,100093.26
2022-10-04T15:59:47.081Z,100094.50
2022-10-04T16:02:40.782Z,100108.50
2022-10-04T16:05:34.836Z,100120.61
2022-10-04T16:08:15.592Z,100110.00
2022-10-04T16:11:15.722Z,100121.78
2022-10-04T16:14:02.022Z,100119.05
2022-10-04T16:16:48.821Z,100103.55
2022-10-04T16:19:44.572Z,100116.39
2022-10-04T16:22:22.758Z,100115.22
2022-10-04T16:24:58.954Z,100126.55
2022-10-04T16:27:51.908Z,100130.34
2022-10-04T16:30:42.154Z,100141.28
2022-10-04T16:33:39.522Z,100134.96
2022-10-04T16:36:20.222Z,100140.95
2022-10-04T16:39:11.323Z,100143.49
2022-10-04T16:41:59.459Z,100141.08
2022-10-04T16:44:37.239Z,100138.55
2022-10-04T16:47:32.047Z,100146.03
2022-10-04T16:50:03.370Z,100154.23
2022-10-04T16:53:06.417Z,100157.49
2022-10-04T16:55:56.910Z,100158.34
2022-10-04T16:58:36.151Z,100159.37
2022-10-04T17:01:41.349Z,100171.17
2022-10-04T17:04:36.972Z,100168.11
2022-10-04T17:07:34.247Z,100162.12
2022-10-04T17:10:30.286Z,100165.18
2022-10-04T17:13:16.845Z,100172.34
2022-10-04T17:16:14.254Z,100168.56
2022-10-04T17:19:05.774Z,100163.73
2022-10-04T17:22:07.660Z,100176.05
2022-10-04T17:25:24.552Z,100181.52
2022-10-04T17:28:16.012Z,100182.89
2022-10-04T17:31:10.473Z,100180.16
2022-10-04T17:33:55.264Z,100181.20
2022-10-04T17:36:50.849Z,100191.48
2022-10-04T17:39:58.439Z,100188.75
2022-10-04T17:43:00.032Z,100196.64
2022-10-04T17:45:49.126Z,100198.72
2022-10-04T17:48:53.251Z,100201.78
2022-10-04T17:52:04.948Z,100207.25
2022-10-04T17:55:06.696Z,100207.58
2022-10-04T17:58:02.715Z,100208.55
2022-10-04T18:01:00.476Z,100212.66
2022-10-04T18:03:44.028Z,100216.11
2022-10-04T18:06:38.479Z,100214.61
2022-10-04T18:09:48.397Z,100223.21
2022-10-04T18:12:42.499Z,100222.75
2022-10-04T18:15:32.787Z,100228.94
2022-10-04T18:18:16.394Z,100231.03
2022-10-04T18:20:54.235Z,100235.12
2022-10-04T18:23:30.369Z,100241.45
2022-10-04T18:26:20.700Z,100243.34
2022-10-04T18:28:50.536Z,100239.95
2022-10-04T18:31:30.800Z,100249.19
2022-10-04T18:34:18.211Z,100248.16
2022-10-04T18:37:25.062Z,100247.30
2022-10-04T18:39:55.860Z,100257.07
2022-10-04T18:42:30.570Z,100257.78
2022-10-04T18:45:02.042Z,100240.20
2022-10-04T18:47:37.856Z,100244.11
2022-10-04T18:50:35.314Z,100258.95
2022-10-04T18:53:43.801Z,100254.66
2022-10-04T18:56:15.491Z,100254.47
2022-10-04T18:59:40.141Z,100250.50
2022-10-04T19:02:45.590Z,100246.20
2022-10-04T19:05:37.322Z,100243.47
2022-10-04T19:08:21.086Z,100246.39
2022-10-04T19:10:53.372Z,100252.06
2022-10-04T19:13:40.326Z,100247.95
2022-10-04T19:16:41.053Z,100259.22
2022-10-04T19:19:18.476Z,100259.55
2022-10-04T19:22:07.509Z,100263.45
2022-10-04T19:25:05.878Z,100266.52
2022-10-04T19:27:40.412Z,100266.20
2022-10-04T19:30:26.521Z,100271.99
2022-10-04T19:33:36.590Z,100271.80
2022-10-04T19:36:22.972Z,100275.19
2022-10-04T19:39:23.171Z,100288.73
2022-10-04T19:42:01.982Z,100292.50
2022-10-04T19:45:02.125Z,100299.34
2022-10-04T19:47:57.658Z,100294.72
2022-10-04T19:50:44.078Z,100298.95
2022-10-04T19:53:28.402Z,100297.91
2022-10-04T19:55:58.991Z,100304.36
2022-10-04T19:58:58.527Z,100305.53
2022-10-04T20:01:29.768Z,100301.44
2022-10-04T20:04:17.257Z,100314.59
2022-10-04T20:06:55.139Z,100316.80
2022-10-04T20:09:27.080Z,100319.34
2022-10-04T20:11:57.669Z,100324.30
2022-10-04T20:14:35.529Z,100318.31
2022-10-04T20:17:06.386Z,100327.36
2022-10-04T20:19:41.641Z,100335.37
2022-10-04T20:22:25.630Z,100337.07
2022-10-04T20:24:57.535Z,100347.82
2022-10-04T20:27:33.678Z,100339.09
2022-10-04T20:30:13.917Z,100349.68
2022-10-04T20:32:48.866Z,100360.11
2022-10-04T20:35:56.322Z,100348.31
2022-10-04T20:39:00.705Z,100359.26
2022-10-04T20:41:54.107Z,100362.45
2022-10-04T20:44:57.349Z,100362.13
2022-10-04T20:47:46.368Z,100364.86
2022-10-04T20:50:31.576Z,100370.86
2022-10-04T20:53:23.279Z,100371.70
2022-10-04T20:55:55.779Z,100378.35
2022-10-04T20:58:34.754Z,100381.42
2022-10-04T21:01:36.353Z,100388.06
2022-10-04T21:04:41.032Z,100393.02
2022-10-04T21:07:13.453Z,100390.94
2022-10-04T21:09:43.010Z,100388.85
2022-10-04T21:12:38.495Z,100391.59
2022-10-04T21:15:21.580Z,100386.97
2022-10-04T21:18:08.138Z,100396.21
2022-10-04T21:20:47.100Z,100402.53
2022-10-04T21:23:30.445Z,100402.86
2022-10-04T21:26:22.810Z,100409.70
2022-10-04T21:28:56.865Z,100414.98
2022-10-04T21:31:25.610Z,100416.55
2022-10-04T21:33:54.939Z,100420.98
2022-10-04T21:36:23.776Z,100413.62
2022-10-04T21:38:54.287Z,100412.58
2022-10-04T21:41:23.158Z,100421.44
2022-10-04T21:43:52.531Z,100421.83
2022-10-04T21:46:22.423Z,100428.48
2022-10-04T21:48:51.082Z,100426.78
2022-10-04T21:51:20.442Z,100428.48
